Arba Minch Airport


Codes: HAAM/AMH
Name: Arba Minch Airport
City:
Country: Ethiopia
Elevation: 3901 ft.
Wikipedia:

Photos at Arba Minch Airport


   Photos courtesy of SpottingLog. You can add your own sightings and photos by signing up for a free trial today.



No photos found.

Weather at Arba Minch Airport


Time (UTC)DescriptionTempratureWindCloud coverageVisibilityPressureHumidity
13-Jun-2024 03:00Broken Clouds17°C2 mph, NW72%10000m1019hPa87%
13-Jun-2024 06:00Broken Clouds19°C2 mph, SE74%10000m1019hPa83%
13-Jun-2024 09:00Light Rain23°C4 mph, S74%10000m1018hPa67%
13-Jun-2024 12:00Light Rain27°C4 mph, S61%10000m1013hPa52%
13-Jun-2024 15:00Light Rain23°C4 mph, S98%10000m1014hPa73%
13-Jun-2024 18:00Light Rain20°C2 mph, W98%10000m1016hPa86%
13-Jun-2024 21:00Light Rain20°C2 mph, SW96%10000m1017hPa87%
14-Jun-2024 00:00Light Rain19°C2 mph, W97%10000m1016hPa90%
14-Jun-2024 03:00Light Rain18°C2 mph, W93%10000m1017hPa91%
14-Jun-2024 06:00Light Rain22°C2 mph, S93%10000m1018hPa75%
14-Jun-2024 09:00Light Rain27°C4 mph, S79%10000m1016hPa54%
14-Jun-2024 12:00Light Rain27°C4 mph, S83%10000m1012hPa52%
14-Jun-2024 15:00Light Rain24°C4 mph, S83%10000m1013hPa70%
14-Jun-2024 18:00Light Rain20°C2 mph, W66%10000m1016hPa83%
14-Jun-2024 21:00Overcast Clouds19°C2 mph, W86%10000m1016hPa85%
15-Jun-2024 00:00Light Rain18°C2 mph, W91%10000m1015hPa87%
15-Jun-2024 03:00Light Rain18°C2 mph, W90%10000m1016hPa90%
15-Jun-2024 06:00Light Rain23°C2 mph, S62%10000m1016hPa73%
15-Jun-2024 09:00Light Rain26°C4 mph, S31%10000m1014hPa55%
15-Jun-2024 12:00Light Rain27°C7 mph, S32%10000m1011hPa51%
15-Jun-2024 15:00Light Rain24°C2 mph, S37%10000m1012hPa70%
15-Jun-2024 18:00Light Rain20°C2 mph, W50%10000m1015hPa80%
15-Jun-2024 21:00Clear Sky19°C2 mph, W10%10000m1015hPa82%
16-Jun-2024 00:00Clear Sky19°C2 mph, W9%10000m1014hPa83%
16-Jun-2024 03:00Few Clouds18°C2 mph, W17%10000m1016hPa85%
16-Jun-2024 06:00Few Clouds23°C2 mph, S11%10000m1016hPa67%
16-Jun-2024 09:00Clear Sky27°C4 mph, S7%10000m1013hPa52%
16-Jun-2024 12:00Light Rain28°C7 mph, S20%10000m1010hPa47%
16-Jun-2024 15:00Light Rain25°C4 mph, S83%10000m1011hPa66%
16-Jun-2024 18:00Light Rain20°C2 mph, W91%10000m1015hPa80%
16-Jun-2024 21:00Scattered Clouds20°C2 mph, W45%10000m1015hPa77%
17-Jun-2024 00:00Scattered Clouds18°C2 mph, W43%10000m1015hPa79%
17-Jun-2024 03:00Overcast Clouds18°C2 mph, W100%10000m1017hPa79%
17-Jun-2024 06:00Broken Clouds23°C2 mph, S82%10000m1017hPa62%
17-Jun-2024 09:00Few Clouds27°C4 mph, S15%10000m1014hPa47%
17-Jun-2024 12:00Few Clouds28°C7 mph, S22%10000m1012hPa46%
17-Jun-2024 15:00Scattered Clouds25°C4 mph, S40%10000m1011hPa60%
17-Jun-2024 18:00Broken Clouds21°C2 mph, W60%10000m1015hPa67%
17-Jun-2024 21:00Broken Clouds20°C2 mph, W80%10000m1016hPa69%
18-Jun-2024 00:00Overcast Clouds19°C2 mph, W90%10000m1015hPa74%